Time;durP1;ratioP1;P1;durP2;ratioP2;P2;SDS_P1;SDS_P2;PMS_P1;PMS_P2;Temp;Humidity;BMP_temperature;BMP_pressure;BME280_temperature;BME280_humidity;BME280_pressure;Samples;Min_cycle;Max_cycle;Signal;HPM_P1;HPM_P2
2022/03/02 00:01:53;;;;;;;17.58;7.55;;;3.60;99.90;;;;;;6721917;88;20259;-73
2022/03/02 00:11:53;;;;;;;16.00;7.40;;;3.40;99.90;;;;;;6716206;88;20644;-74
2022/03/02 00:21:54;;;;;;;15.95;7.97;;;3.40;99.90;;;;;;6710021;88;20345;-73
2022/03/02 00:31:55;;;;;;;17.05;7.40;;;3.30;99.90;;;;;;6708216;88;20694;-73
2022/03/02 00:41:55;;;;;;;16.25;7.35;;;3.20;99.90;;;;;;6698736;88;20616;-73
2022/03/02 00:51:56;;;;;;;18.60;7.35;;;3.00;99.90;;;;;;6698086;88;20196;-73
2022/03/02 01:01:57;;;;;;;14.23;7.05;;;3.00;99.90;;;;;;6697868;88;20225;-72
2022/03/02 01:11:58;;;;;;;18.40;7.60;;;2.90;99.90;;;;;;6697851;88;20230;-73
2022/03/02 01:21:58;;;;;;;18.50;7.93;;;2.80;99.90;;;;;;6698197;88;20233;-73
2022/03/02 01:31:59;;;;;;;15.82;7.53;;;2.80;99.90;;;;;;6703989;88;20215;-73
2022/03/02 01:42:00;;;;;;;16.30;7.03;;;2.50;99.90;;;;;;6708102;88;20272;-73
2022/03/02 01:52:01;;;;;;;13.32;7.20;;;2.20;99.90;;;;;;6697563;88;20203;-73
2022/03/02 02:02:01;;;;;;;15.02;7.28;;;2.20;99.90;;;;;;6698118;88;20194;-72
2022/03/02 02:12:02;;;;;;;15.32;7.72;;;2.40;99.90;;;;;;6699130;88;20198;-73
2022/03/02 02:22:03;;;;;;;14.60;7.47;;;2.60;99.90;;;;;;6698096;88;20640;-73
2022/03/02 02:32:04;;;;;;;17.05;7.20;;;2.50;99.90;;;;;;6694213;88;20193;-73
2022/03/02 02:42:07;;;;;;;14.35;7.12;;;2.70;99.90;;;;;;6697502;88;20206;-73
2022/03/02 02:52:07;;;;;;;17.08;7.30;;;2.60;99.90;;;;;;6697485;88;20260;-73
2022/03/02 03:02:08;;;;;;;17.05;6.85;;;2.60;99.90;;;;;;6709989;88;20211;-74
2022/03/02 03:12:09;;;;;;;16.75;6.90;;;2.60;99.90;;;;;;6715059;88;20235;-73
2022/03/02 03:22:09;;;;;;;15.48;6.80;;;2.50;99.90;;;;;;6700871;88;20200;-73
2022/03/02 03:32:10;;;;;;;17.90;7.45;;;2.30;99.90;;;;;;6699419;88;20698;-73
2022/03/02 03:52:14;;;;;;;17.83;6.90;;;2.20;99.90;;;;;;6747555;88;20384;-81
2022/03/02 04:02:14;;;;;;;16.95;7.15;;;2.30;99.90;;;;;;6758619;88;20204;-80
2022/03/02 04:12:17;;;;;;;16.08;7.45;;;2.30;99.90;;;;;;6754551;88;20340;-81
2022/03/02 04:22:17;;;;;;;16.48;6.82;;;2.30;99.90;;;;;;6758806;88;20187;-80
2022/03/02 04:32:18;;;;;;;15.30;7.00;;;2.40;99.90;;;;;;6758327;88;20224;-80
2022/03/02 04:42:18;;;;;;;14.68;7.12;;;2.50;99.90;;;;;;6758347;88;20588;-80
2022/03/02 04:52:19;;;;;;;16.98;7.60;;;2.40;99.90;;;;;;6753112;88;20209;-80
2022/03/02 05:02:20;;;;;;;14.25;6.82;;;2.30;99.90;;;;;;6757906;88;20707;-80
2022/03/02 05:12:20;;;;;;;17.25;7.72;;;2.50;99.90;;;;;;6754218;88;20189;-81
2022/03/02 05:22:21;;;;;;;17.75;7.30;;;2.50;99.90;;;;;;6754184;88;20172;-80
2022/03/02 05:32:22;;;;;;;15.75;7.18;;;2.50;99.90;;;;;;6757723;88;20196;-81
2022/03/02 05:42:22;;;;;;;14.70;7.57;;;2.40;99.90;;;;;;6720614;88;20189;-80
2022/03/02 05:52:24;;;;;;;17.70;7.43;;;2.50;99.90;;;;;;6719873;88;20212;-81
2022/03/02 06:02:24;;;;;;;15.85;7.28;;;2.50;99.90;;;;;;6718481;88;20224;-80
2022/03/02 06:12:25;;;;;;;16.08;6.93;;;2.40;99.90;;;;;;6748297;88;20352;-80
2022/03/02 06:22:26;;;;;;;15.30;6.30;;;2.70;99.90;;;;;;6753999;88;20414;-80
2022/03/02 06:32:28;;;;;;;13.20;6.28;;;2.80;99.90;;;;;;6758380;88;20202;-81
2022/03/02 06:43:06;;;;;;;17.77;7.60;;;2.70;99.90;;;;;;6756846;88;20172;-80
2022/03/02 06:53:11;;;;;;;16.55;7.00;;;2.80;99.90;;;;;;6756725;88;20180;-80
2022/03/02 07:03:14;;;;;;;14.20;6.53;;;2.90;99.90;;;;;;6755583;88;20201;-80
2022/03/02 07:13:15;;;;;;;16.55;6.75;;;3.00;99.90;;;;;;6756534;88;20345;-81
2022/03/02 07:23:16;;;;;;;15.55;6.75;;;3.10;99.90;;;;;;6757322;88;20323;-80
2022/03/02 07:33:21;;;;;;;15.18;6.65;;;3.20;99.90;;;;;;6757215;88;20594;-81
2022/03/02 07:43:22;;;;;;;18.67;6.95;;;3.50;99.90;;;;;;6753822;88;20191;-80
2022/03/02 07:53:28;;;;;;;14.18;6.82;;;3.60;99.90;;;;;;6757452;88;20175;-80
2022/03/02 08:03:28;;;;;;;19.20;7.10;;;4.00;99.90;;;;;;6757466;88;20201;-81
2022/03/02 08:13:34;;;;;;;18.12;7.47;;;4.50;99.90;;;;;;6757832;88;20198;-81
2022/03/02 08:23:39;;;;;;;15.33;6.90;;;5.90;99.90;;;;;;6751732;88;20318;-80
2022/03/02 08:33:41;;;;;;;15.73;7.37;;;7.10;99.90;;;;;;6747832;88;20960;-80
2022/03/02 08:43:43;;;;;;;15.05;7.12;;;7.00;98.30;;;;;;6755537;88;20227;-81
2022/03/02 08:53:45;;;;;;;13.48;6.85;;;7.80;95.70;;;;;;6757480;88;20220;-80
2022/03/02 09:03:48;;;;;;;14.35;7.28;;;7.20;95.00;;;;;;6753426;88;20721;-80
2022/03/02 09:13:50;;;;;;;11.98;6.15;;;7.40;94.30;;;;;;6757610;88;20473;-81
2022/03/02 09:23:50;;;;;;;10.93;5.87;;;8.10;93.40;;;;;;6751209;88;20189;-81
2022/03/02 09:33:56;;;;;;;10.57;5.55;;;8.90;90.10;;;;;;6755366;88;20324;-81
2022/03/02 09:54:03;;;;;;;10.93;6.07;;;9.40;87.50;;;;;;6749463;88;20320;-82
2022/03/02 10:04:21;;;;;;;11.38;5.05;;;9.50;86.30;;;;;;6747005;88;20239;-81
2022/03/02 10:14:22;;;;;;;10.05;5.50;;;10.60;78.60;;;;;;6741879;88;20181;-81
2022/03/02 10:24:24;;;;;;;11.95;5.57;;;10.40;76.20;;;;;;6742238;88;20181;-81
2022/03/02 10:34:31;;;;;;;10.20;5.20;;;10.70;75.40;;;;;;6743738;88;20191;-82
2022/03/02 10:44:59;;;;;;;10.95;5.53;;;11.40;73.80;;;;;;6744059;88;20269;-80
2022/03/02 10:55:07;;;;;;;10.45;5.32;;;11.20;73.40;;;;;;6742824;88;20218;-81
2022/03/02 11:05:17;;;;;;;11.60;6.28;;;12.80;72.40;;;;;;6740560;88;20200;-80
2022/03/02 11:15:19;;;;;;;11.27;6.10;;;14.40;69.80;;;;;;6738453;88;20709;-79
2022/03/02 11:25:38;;;;;;;13.57;6.50;;;16.00;64.10;;;;;;6735159;88;20245;-81
2022/03/02 11:35:39;;;;;;;10.52;6.25;;;17.30;62.60;;;;;;6735086;88;20168;-81
2022/03/02 11:45:40;;;;;;;9.27;6.43;;;16.50;60.10;;;;;;6739714;88;20246;-79
2022/03/02 11:55:42;;;;;;;9.88;6.40;;;18.20;59.50;;;;;;6734742;88;20263;-79
2022/03/02 12:05:42;;;;;;;11.70;6.85;;;19.30;57.70;;;;;;6737607;88;20212;-79
2022/03/02 12:15:51;;;;;;;9.98;6.60;;;19.90;53.90;;;;;;6737098;88;20189;-80
2022/03/02 12:25:52;;;;;;;8.27;6.12;;;19.60;53.80;;;;;;6738989;88;20352;-77
2022/03/02 12:35:52;;;;;;;10.68;6.80;;;19.90;52.20;;;;;;6737647;88;20197;-79
2022/03/02 12:45:55;;;;;;;9.30;6.20;;;19.60;50.20;;;;;;6738307;88;20223;-78
2022/03/02 12:55:56;;;;;;;10.45;6.57;;;21.40;50.30;;;;;;6735726;88;20607;-79
2022/03/02 13:06:03;;;;;;;11.87;6.67;;;23.60;46.80;;;;;;6732536;88;20728;-80
2022/03/02 13:16:18;;;;;;;8.88;6.50;;;22.20;46.20;;;;;;6734873;88;20273;-80
2022/03/02 13:26:19;;;;;;;13.43;6.60;;;23.30;44.20;;;;;;6734577;88;20269;-79
2022/03/02 13:36:32;;;;;;;9.57;7.12;;;22.80;45.20;;;;;;6734214;88;20216;-80
2022/03/02 13:46:32;;;;;;;14.13;6.78;;;21.10;44.70;;;;;;6734308;88;20169;-80
2022/03/02 13:56:36;;;;;;;17.23;6.72;;;23.60;44.30;;;;;;6735656;88;20215;-80
2022/03/02 14:06:38;;;;;;;10.37;6.57;;;20.70;46.60;;;;;;6735934;88;20193;-79
2022/03/02 14:17:07;;;;;;;9.50;6.45;;;22.60;44.70;;;;;;6730468;88;20234;-80
2022/03/02 14:27:10;;;;;;;8.90;6.12;;;22.90;43.00;;;;;;6716543;88;20270;-79
2022/03/02 14:37:31;;;;;;;13.27;6.20;;;23.50;41.60;;;;;;6717827;88;20297;-80
2022/03/02 14:47:32;;;;;;;10.02;5.82;;;20.80;42.50;;;;;;6722222;88;20495;-80
2022/03/02 14:57:37;;;;;;;9.75;6.32;;;19.80;43.50;;;;;;6718136;88;20190;-79
2022/03/02 15:07:40;;;;;;;9.63;5.53;;;18.20;46.20;;;;;;6718879;88;20207;-79
2022/03/02 15:17:42;;;;;;;9.13;5.40;;;16.70;46.30;;;;;;6719827;88;20197;-79
2022/03/02 15:28:07;;;;;;;7.55;5.18;;;17.20;46.60;;;;;;6715734;88;20218;-78
2022/03/02 15:38:16;;;;;;;8.17;5.10;;;16.30;45.50;;;;;;6717454;88;20195;-80
2022/03/02 15:48:19;;;;;;;7.05;4.78;;;15.30;47.50;;;;;;6716770;88;20191;-79
2022/03/02 15:58:26;;;;;;;11.70;6.50;;;14.70;47.60;;;;;;6716032;88;20214;-78
2022/03/02 16:08:33;;;;;;;9.93;5.35;;;14.20;49.90;;;;;;6713008;88;20190;-78
2022/03/02 16:18:34;;;;;;;10.23;6.40;;;13.80;49.70;;;;;;6717942;88;20623;-78
2022/03/02 16:28:37;;;;;;;11.20;6.37;;;13.60;50.30;;;;;;6719904;88;20196;-79
2022/03/02 16:38:38;;;;;;;10.65;5.97;;;12.80;52.80;;;;;;6716734;88;20331;-78
2022/03/02 16:48:39;;;;;;;10.60;6.00;;;12.60;53.40;;;;;;6720441;88;20248;-78
2022/03/02 16:58:39;;;;;;;13.95;6.50;;;12.20;54.10;;;;;;6716196;88;20198;-80
2022/03/02 17:08:40;;;;;;;8.77;5.43;;;11.50;55.20;;;;;;6715258;88;20253;-78
2022/03/02 17:18:40;;;;;;;9.68;5.50;;;11.00;56.70;;;;;;6718630;88;20217;-80
2022/03/02 17:28:41;;;;;;;11.95;5.95;;;10.60;57.80;;;;;;6718891;88;20910;-79
2022/03/02 17:38:42;;;;;;;10.60;5.40;;;10.20;58.50;;;;;;6715725;88;20698;-79
2022/03/02 17:48:43;;;;;;;12.43;5.47;;;9.90;59.20;;;;;;6714349;88;20696;-79
2022/03/02 17:58:44;;;;;;;11.63;6.20;;;9.70;60.10;;;;;;6718009;88;20210;-79
2022/03/02 18:08:45;;;;;;;9.75;5.53;;;9.40;61.60;;;;;;6718172;88;20355;-80
2022/03/02 18:18:48;;;;;;;13.32;6.90;;;9.10;62.10;;;;;;6718021;88;20182;-79
2022/03/02 18:28:49;;;;;;;10.82;6.45;;;8.80;63.70;;;;;;6714322;88;20195;-78
2022/03/02 18:38:51;;;;;;;15.27;8.35;;;8.30;65.60;;;;;;6719145;88;20269;-79
2022/03/02 18:48:53;;;;;;;17.10;9.23;;;7.90;67.60;;;;;;6715422;88;20233;-79
2022/03/02 18:58:54;;;;;;;17.00;8.02;;;7.70;68.30;;;;;;6717030;88;20777;-79
2022/03/02 19:08:54;;;;;;;13.65;7.22;;;7.40;69.00;;;;;;6720322;88;20212;-79
2022/03/02 19:18:55;;;;;;;13.53;6.80;;;7.20;68.60;;;;;;6719837;88;20638;-80
2022/03/02 19:28:56;;;;;;;15.60;6.78;;;7.40;67.30;;;;;;6720746;88;20545;-79
2022/03/02 19:49:17;;;;;;;15.25;7.82;;;7.30;68.50;;;;;;6720803;88;20194;-79
2022/03/02 19:59:19;;;;;;;13.25;6.70;;;6.90;70.30;;;;;;6722407;88;20194;-79
2022/03/02 20:09:19;;;;;;;12.98;6.80;;;6.60;71.10;;;;;;6721792;88;20218;-80
2022/03/02 20:19:20;;;;;;;12.52;6.30;;;6.40;70.90;;;;;;6725901;88;20228;-81
2022/03/02 20:29:20;;;;;;;12.88;6.43;;;6.40;70.80;;;;;;6726928;88;20223;-80
2022/03/02 20:39:21;;;;;;;12.73;6.57;;;6.40;70.70;;;;;;6723037;88;20205;-81
2022/03/02 20:49:22;;;;;;;15.02;6.72;;;6.20;71.60;;;;;;6724007;88;20173;-79
2022/03/02 20:59:24;;;;;;;13.15;6.55;;;5.80;73.20;;;;;;6725387;88;20220;-79
2022/03/02 21:09:24;;;;;;;13.52;6.57;;;5.70;74.50;;;;;;6725446;88;20190;-79
2022/03/02 21:19:25;;;;;;;12.55;6.47;;;5.60;73.90;;;;;;6721340;88;20197;-79
2022/03/02 21:29:25;;;;;;;15.07;6.87;;;5.60;73.80;;;;;;6722053;88;20202;-78
2022/03/02 21:39:26;;;;;;;13.65;6.50;;;5.50;73.40;;;;;;6722683;88;20158;-78
2022/03/02 21:49:47;;;;;;;15.63;6.35;;;5.50;73.60;;;;;;6720831;77;20203;-81
2022/03/02 21:59:48;;;;;;;12.80;6.82;;;5.20;75.10;;;;;;6717186;88;20183;-79
2022/03/02 22:09:48;;;;;;;12.37;6.60;;;5.00;76.20;;;;;;6707221;88;20210;-79
2022/03/02 22:19:49;;;;;;;16.12;6.60;;;5.00;75.60;;;;;;6716306;88;20244;-78
2022/03/02 22:29:49;;;;;;;13.20;6.85;;;5.10;75.80;;;;;;6715397;88;20230;-79
2022/03/02 22:39:50;;;;;;;14.32;7.50;;;4.80;77.40;;;;;;6716470;88;20199;-79
2022/03/02 22:49:51;;;;;;;13.18;6.62;;;4.40;79.80;;;;;;6716204;88;20653;-78
2022/03/02 22:59:52;;;;;;;17.60;7.80;;;3.90;83.00;;;;;;6715576;88;20701;-78
2022/03/02 23:20:13;;;;;;;16.37;7.47;;;3.30;90.50;;;;;;6715494;88;20216;-78
2022/03/02 23:30:14;;;;;;;15.13;7.43;;;3.10;93.70;;;;;;6715484;88;20214;-78
2022/03/02 23:40:14;;;;;;;13.98;7.37;;;2.90;96.90;;;;;;6716657;88;20218;-79
2022/03/02 23:50:15;;;;;;;15.90;7.68;;;2.70;99.40;;;;;;6718252;88;20218;-80
